X  Fermer Données météorologiques d'aviation de Metar     LGRX Patras Araxos Agamemnon Airport
Température
27°C Température
19°C Point de rosée
62% Humidité



Vent
0 KM/H
0 MPH
0 M/S
0 KTS



Calme
N
Conditions actuelles

Clair Clair
Pression 1013.92 (hPa) - 29.94 (inHg)
Visibilité 6.2 (mile) - 10 (km)
Aéroport
Code de l'aéroport LGRX

Emplacement: Patras Araxos Agamemnon Airport
Distance: 16 (km)

Metar:
LGRX 020520Z 00000KT CAVOK 27/19 Q1014

Temps: 02-07-2022 08:20 EEST